createdAt,value
2018-09-04T00:56:06.863Z,81.23
2018-09-04T00:58:35.295Z,87.40
2018-09-04T01:01:03.881Z,86.30
2018-09-04T01:03:32.627Z,94.53
2018-09-04T01:06:02.074Z,82.50
2018-09-04T01:08:30.798Z,80.33
2018-09-04T01:10:59.592Z,87.47
2018-09-04T01:13:29.342Z,89.93
2018-09-04T01:15:57.915Z,93.53
2018-09-04T01:18:28.632Z,103.87
2018-09-04T01:20:57.026Z,94.20
2018-09-04T01:23:25.809Z,108.80
2018-09-04T01:25:54.536Z,100.53
2018-09-04T01:28:23.413Z,109.43
2018-09-04T01:30:52.163Z,108.37
2018-09-04T01:33:21.199Z,133.53
2018-09-04T01:35:49.698Z,120.80
2018-09-04T01:38:19.912Z,105.83
2018-09-04T01:40:48.600Z,121.77
2018-09-04T01:43:17.012Z,114.67
2018-09-04T01:45:45.676Z,106.20
2018-09-04T01:48:14.805Z,102.87
2018-09-04T01:50:44.427Z,121.00
2018-09-04T01:53:13.156Z,112.97
2018-09-04T01:55:41.827Z,110.33
2018-09-04T01:58:10.483Z,111.10
2018-09-04T02:00:39.067Z,128.13
2018-09-04T02:03:07.892Z,103.83
2018-09-04T02:05:37.700Z,120.27
2018-09-04T02:08:06.135Z,111.37
2018-09-04T02:10:34.558Z,96.77
2018-09-04T02:13:02.939Z,105.80
2018-09-04T02:15:31.681Z,113.63
2018-09-04T02:18:00.097Z,109.50
2018-09-04T02:20:28.800Z,103.10
2018-09-04T02:22:57.732Z,102.23
2018-09-04T02:25:26.384Z,140.77
2018-09-04T02:27:55.097Z,139.37
2018-09-04T02:30:24.408Z,88.07
2018-09-04T02:32:52.885Z,101.20
2018-09-04T02:35:21.494Z,108.23
2018-09-04T02:37:50.135Z,101.60
2018-09-04T02:40:18.708Z,92.70
2018-09-04T02:42:47.077Z,106.87
2018-09-04T02:45:15.467Z,93.80
2018-09-04T02:47:45.394Z,106.67
2018-09-04T02:50:14.067Z,97.57
2018-09-04T02:52:42.779Z,103.70
2018-09-04T02:55:11.847Z,104.17
2018-09-04T02:57:40.690Z,134.40
2018-09-04T03:00:09.697Z,130.40
2018-09-04T03:02:38.175Z,131.97
2018-09-04T03:05:07.115Z,104.53
2018-09-04T03:07:36.393Z,96.70
2018-09-04T03:10:05.737Z,107.97
2018-09-04T03:12:34.357Z,100.27
2018-09-04T03:15:03.307Z,105.90
2018-09-04T03:17:31.719Z,117.17
2018-09-04T03:20:00.651Z,109.80
2018-09-04T03:22:29.020Z,91.97
2018-09-04T03:24:58.020Z,129.10
2018-09-04T03:27:26.664Z,109.63
2018-09-04T03:29:55.189Z,99.30
2018-09-04T03:32:25.523Z,101.93
2018-09-04T03:34:54.501Z,88.13
2018-09-04T03:37:23.388Z,93.73
2018-09-04T03:39:52.323Z,96.37
2018-09-04T03:42:21.081Z,93.87
2018-09-04T03:44:49.523Z,104.20
2018-09-04T03:47:18.186Z,89.37
2018-09-04T03:49:46.708Z,91.40
2018-09-04T03:52:16.404Z,97.30
2018-09-04T03:54:44.900Z,84.20
2018-09-04T03:57:13.696Z,89.33
2018-09-04T03:59:42.580Z,101.33
2018-09-04T04:02:11.010Z,99.70
2018-09-04T04:04:39.667Z,94.70
2018-09-04T04:07:09.174Z,97.30
2018-09-04T04:09:37.886Z,93.47
2018-09-04T04:12:06.463Z,85.13
2018-09-04T04:14:35.040Z,87.60
2018-09-04T04:17:03.671Z,96.03
2018-09-04T04:19:32.336Z,88.73
2018-09-04T04:22:00.789Z,86.00
2018-09-04T04:24:29.170Z,87.63
2018-09-04T04:26:58.259Z,91.50
2018-09-04T04:29:26.907Z,80.50
2018-09-04T04:31:56.400Z,79.10
2018-09-04T04:34:24.852Z,83.60
2018-09-04T04:36:54.134Z,79.17
2018-09-04T04:39:22.549Z,83.73
2018-09-04T04:41:51.304Z,72.40
2018-09-04T04:44:20.990Z,79.30
2018-09-04T04:46:49.647Z,74.53
2018-09-04T04:49:18.086Z,82.37
2018-09-04T04:51:47.005Z,86.17
2018-09-04T04:54:15.575Z,79.67
2018-09-04T04:56:44.138Z,66.73
2018-09-04T04:59:12.573Z,63.53
2018-09-04T05:01:42.367Z,77.10
2018-09-04T05:04:11.192Z,65.13
2018-09-04T05:06:39.930Z,67.00
2018-09-04T05:09:09.363Z,71.83
2018-09-04T05:11:38.004Z,80.40
2018-09-04T05:14:06.736Z,72.13
2018-09-04T05:16:35.957Z,72.53
2018-09-04T05:19:04.387Z,69.90
2018-09-04T05:21:33.309Z,78.00
2018-09-04T05:24:01.820Z,71.83
2018-09-04T05:26:30.418Z,79.43
2018-09-04T05:28:59.259Z,79.50
2018-09-04T05:31:28.001Z,77.27
2018-09-04T05:33:56.733Z,78.03
2018-09-04T05:36:25.815Z,76.07
2018-09-04T05:38:54.652Z,73.10
2018-09-04T05:41:23.221Z,76.60
2018-09-04T05:43:55.945Z,74.30
2018-09-04T05:46:57.134Z,72.77
2018-09-04T05:49:30.895Z,67.60
2018-09-04T05:51:59.413Z,70.43
2018-09-04T05:54:28.263Z,80.93
2018-09-04T05:56:57.172Z,65.93
2018-09-04T05:59:25.694Z,65.83
2018-09-04T06:01:55.024Z,76.87
2018-09-04T06:04:23.566Z,79.50
2018-09-04T06:06:52.039Z,62.87
2018-09-04T06:09:20.911Z,70.07
2018-09-04T06:11:49.800Z,79.50
2018-09-04T06:14:18.555Z,68.13
2018-09-04T06:16:46.974Z,66.63
2018-09-04T06:19:15.573Z,63.20
2018-09-04T06:21:44.207Z,72.87
2018-09-04T06:24:13.750Z,66.10
2018-09-04T06:26:42.183Z,77.40
2018-09-04T06:29:10.971Z,71.77
2018-09-04T06:31:40.336Z,64.17
2018-09-04T06:34:09.685Z,68.03
2018-09-04T06:36:38.460Z,58.47
2018-09-04T06:39:09.196Z,56.07
2018-09-04T06:41:38.444Z,53.77
2018-09-04T06:44:07.121Z,48.27
2018-09-04T06:46:36.041Z,45.93
2018-09-04T06:49:04.850Z,48.30
2018-09-04T06:51:34.644Z,47.30
2018-09-04T06:54:03.620Z,43.93
2018-09-04T06:56:32.204Z,41.73
2018-09-04T06:59:00.913Z,45.97
2018-09-04T07:01:30.120Z,41.83
2018-09-04T07:03:59.090Z,42.40
2018-09-04T07:06:28.682Z,43.23
2018-09-04T07:08:57.206Z,42.83
2018-09-04T07:11:27.149Z,43.83
2018-09-04T07:13:56.327Z,46.73
2018-09-04T07:16:24.734Z,42.60
2018-09-04T07:18:53.194Z,47.63
2018-09-04T07:21:21.885Z,47.03
2018-09-04T07:23:50.346Z,46.57
2018-09-04T07:26:18.884Z,50.67
2018-09-04T07:28:48.265Z,40.83
2018-09-04T07:31:17.181Z,42.50
2018-09-04T07:33:46.111Z,32.43
2018-09-04T07:36:14.581Z,32.97
2018-09-04T07:38:43.462Z,31.00
2018-09-04T07:41:12.269Z,33.13
2018-09-04T07:43:41.012Z,31.83
2018-09-04T07:46:09.825Z,32.10
2018-09-04T07:48:38.481Z,30.20
2018-09-04T07:51:07.265Z,31.97
2018-09-04T07:53:35.849Z,38.43
2018-09-04T07:56:04.304Z,28.57
2018-09-04T07:58:33.040Z,27.33
2018-09-04T08:01:01.844Z,29.20
2018-09-04T08:03:30.629Z,28.30
2018-09-04T08:06:00.317Z,26.90
2018-09-04T08:08:30.007Z,25.83
2018-09-04T08:10:58.665Z,26.47
2018-09-04T08:13:27.608Z,22.47
2018-09-04T08:15:56.228Z,19.97
2018-09-04T08:18:25.980Z,19.43
2018-09-04T08:20:55.337Z,22.13
2018-09-04T08:23:23.991Z,20.83
2018-09-04T08:25:52.708Z,19.10
2018-09-04T08:28:21.737Z,25.47
2018-09-04T08:30:50.408Z,20.27
2018-09-04T08:33:19.420Z,18.03
2018-09-04T08:35:49.593Z,18.67
2018-09-04T08:38:18.331Z,20.70
2018-09-04T08:40:47.392Z,19.03
2018-09-04T08:43:16.595Z,20.83
2018-09-04T08:45:45.378Z,23.67
2018-09-04T08:48:30.353Z,22.07
2018-09-04T08:50:59.170Z,17.50
2018-09-04T08:53:27.831Z,20.27
2018-09-04T08:55:56.683Z,16.83
2018-09-04T08:58:25.248Z,18.97
2018-09-04T09:00:54.042Z,20.97
2018-09-04T09:03:23.879Z,19.73
2018-09-04T09:05:52.988Z,15.27
2018-09-04T09:08:21.778Z,14.70
2018-09-04T09:10:50.622Z,12.47
2018-09-04T09:13:19.460Z,14.27
2018-09-04T09:15:48.796Z,19.50
2018-09-04T09:18:17.759Z,16.43
2018-09-04T09:20:48.852Z,14.50
2018-09-04T09:23:17.373Z,14.37
2018-09-04T09:25:47.116Z,13.53
2018-09-04T09:28:17.001Z,12.57
2018-09-04T09:30:45.653Z,16.33
2018-09-04T09:33:14.561Z,13.17
2018-09-04T09:35:43.481Z,12.43
2018-09-04T09:38:12.130Z,14.77
2018-09-04T09:40:40.602Z,16.53
2018-09-04T09:43:09.403Z,16.73
2018-09-04T09:45:38.374Z,19.23
2018-09-04T09:48:07.426Z,21.63
2018-09-04T09:50:35.869Z,23.47
2018-09-04T09:53:07.010Z,22.77
2018-09-04T09:55:35.663Z,27.60
2018-09-04T09:58:04.608Z,23.07
2018-09-04T10:00:38.555Z,31.37
2018-09-04T10:03:13.555Z,29.83
2018-09-04T10:05:42.182Z,26.27
2018-09-04T10:08:10.739Z,33.33
2018-09-04T10:10:39.981Z,40.80
2018-09-04T10:13:08.443Z,36.50
2018-09-04T10:15:41.525Z,33.53
2018-09-04T10:18:10.592Z,36.97
2018-09-04T10:20:39.055Z,34.77
2018-09-04T10:23:07.580Z,41.23
2018-09-04T10:25:36.052Z,39.73
2018-09-04T10:28:08.676Z,46.60
2018-09-04T10:30:38.903Z,37.40
2018-09-04T10:33:08.898Z,36.90
2018-09-04T10:35:44.783Z,36.40
2018-09-04T10:41:02.494Z,37.70
2018-09-04T10:43:31.928Z,33.83
2018-09-04T10:46:03.196Z,36.90
2018-09-04T10:48:32.120Z,34.57
2018-09-04T10:51:02.151Z,39.30
2018-09-04T10:53:30.716Z,38.10
2018-09-04T10:55:59.331Z,36.13
2018-09-04T10:58:28.433Z,35.47
2018-09-04T11:00:57.235Z,39.10
2018-09-04T11:03:28.019Z,39.17
2018-09-04T11:05:56.451Z,41.90
2018-09-04T11:08:26.413Z,43.33
2018-09-04T11:10:55.125Z,39.27
2018-09-04T11:13:23.760Z,40.13
2018-09-04T11:15:54.424Z,39.97
2018-09-04T11:18:23.850Z,37.87
2018-09-04T11:20:52.927Z,38.20
2018-09-04T11:23:22.176Z,42.63
2018-09-04T11:25:50.795Z,37.87
2018-09-04T11:28:20.367Z,36.00
2018-09-04T11:30:49.275Z,37.90
2018-09-04T11:33:18.242Z,42.60
2018-09-04T11:35:47.596Z,40.60
2018-09-04T11:38:16.533Z,39.90
2018-09-04T11:40:45.273Z,43.77
2018-09-04T11:43:16.629Z,35.07
2018-09-04T11:45:45.614Z,36.97
2018-09-04T11:48:18.435Z,38.77
2018-09-04T11:50:47.776Z,37.50
2018-09-04T11:53:17.353Z,35.40
2018-09-04T11:55:49.296Z,33.47
2018-09-04T11:58:18.452Z,32.53
2018-09-04T12:00:48.729Z,29.37
2018-09-04T12:03:19.242Z,29.97
2018-09-04T12:05:49.922Z,30.77
2018-09-04T12:08:19.984Z,26.97
2018-09-04T12:10:49.473Z,29.87
2018-09-04T12:13:25.278Z,25.07
2018-09-04T12:15:54.400Z,23.23
2018-09-04T12:18:24.899Z,23.43
2018-09-04T12:21:00.110Z,22.13
2018-09-04T12:23:30.727Z,21.60
2018-09-04T12:26:01.344Z,21.60
2018-09-04T12:28:30.504Z,19.50
2018-09-04T12:30:59.995Z,20.60
2018-09-04T12:33:29.450Z,21.70
2018-09-04T12:36:00.830Z,22.43
2018-09-04T12:38:32.809Z,22.47
2018-09-04T12:41:10.977Z,24.07
2018-09-04T12:43:40.479Z,24.23
2018-09-04T12:46:10.125Z,24.47
2018-09-04T12:48:38.748Z,25.30
2018-09-04T12:51:08.269Z,26.60
2018-09-04T12:53:39.436Z,28.13
2018-09-04T12:56:08.577Z,23.87
2018-09-04T12:58:37.824Z,25.23
2018-09-04T13:01:09.755Z,23.40
2018-09-04T13:03:41.228Z,22.33
2018-09-04T13:06:11.820Z,22.57
2018-09-04T13:08:40.931Z,22.80
2018-09-04T13:11:10.861Z,23.03
2018-09-04T13:13:39.812Z,27.33
2018-09-04T13:16:08.861Z,25.30
2018-09-04T13:18:38.961Z,25.73
2018-09-04T13:21:07.772Z,27.60
2018-09-04T13:23:37.508Z,26.67
2018-09-04T13:26:06.906Z,24.77
2018-09-04T13:28:37.127Z,25.47
2018-09-04T13:31:06.776Z,24.67
2018-09-04T13:33:36.796Z,22.63
2018-09-04T13:36:06.657Z,23.27
2018-09-04T13:38:36.336Z,23.70
2018-09-04T13:41:08.664Z,23.27
2018-09-04T13:43:39.352Z,20.90
2018-09-04T13:46:09.916Z,23.03
2018-09-04T13:48:39.471Z,21.63
2018-09-04T13:51:08.998Z,22.33
2018-09-04T13:53:37.776Z,26.33
2018-09-04T13:56:08.150Z,30.77
2018-09-04T13:58:37.101Z,34.87
2018-09-04T14:01:06.713Z,43.77
2018-09-04T14:03:35.793Z,36.40
2018-09-04T14:06:07.248Z,40.93
2018-09-04T14:08:36.648Z,50.13
2018-09-04T14:11:06.114Z,49.90
2018-09-04T14:13:35.148Z,52.83
2018-09-04T14:16:06.134Z,58.23
2018-09-04T14:18:36.655Z,60.33
2018-09-04T14:21:06.932Z,60.40
2018-09-04T14:23:35.951Z,66.60
2018-09-04T14:26:04.924Z,69.47
2018-09-04T14:28:41.580Z,71.53
2018-09-04T14:31:04.256Z,73.93
2018-09-04T14:33:34.567Z,63.40
2018-09-04T14:36:06.539Z,67.57
2018-09-04T14:38:37.204Z,65.57
2018-09-04T14:41:06.840Z,69.90
2018-09-04T14:43:37.171Z,73.67
2018-09-04T14:46:05.916Z,70.17
2018-09-04T14:48:36.705Z,58.83
2018-09-04T14:51:05.853Z,57.60
2018-09-04T14:53:35.565Z,58.03
2018-09-04T14:56:04.806Z,50.43
2018-09-04T14:58:34.032Z,53.93
2018-09-04T15:01:03.210Z,46.83
2018-09-04T15:03:32.347Z,49.43
2018-09-04T15:06:02.460Z,44.23
2018-09-04T15:08:32.935Z,48.00
2018-09-04T15:11:03.539Z,42.43
2018-09-04T15:13:32.540Z,44.43
2018-09-04T15:16:01.318Z,42.73
2018-09-04T15:18:30.296Z,42.27
2018-09-04T15:20:59.331Z,41.23
2018-09-04T15:23:32.363Z,40.53
2018-09-04T15:26:02.660Z,39.87
2018-09-04T15:28:32.386Z,42.70
2018-09-04T15:31:01.730Z,40.20
2018-09-04T15:33:32.188Z,37.97
2018-09-04T15:36:01.311Z,38.43
2018-09-04T15:38:29.980Z,37.77
2018-09-04T15:40:58.763Z,38.70
2018-09-04T15:43:27.546Z,47.37
2018-09-04T15:45:57.056Z,39.37
2018-09-04T15:48:27.549Z,39.37
2018-09-04T15:50:56.530Z,41.43
2018-09-04T15:53:25.018Z,43.83
2018-09-04T15:55:53.820Z,42.73
2018-09-04T15:58:22.579Z,42.17
2018-09-04T16:00:51.609Z,40.93
2018-09-04T16:03:20.513Z,40.77
2018-09-04T16:05:51.330Z,40.00
2018-09-04T16:08:20.277Z,41.90
2018-09-04T16:10:49.402Z,42.57
2018-09-04T16:13:18.583Z,41.37
2018-09-04T16:15:47.528Z,43.27
2018-09-04T16:18:18.085Z,46.60
2018-09-04T16:20:46.563Z,46.60
2018-09-04T16:23:15.176Z,45.23
2018-09-04T16:25:45.698Z,45.60
2018-09-04T16:28:15.573Z,48.83
2018-09-04T16:30:44.124Z,47.63
2018-09-04T16:33:13.257Z,43.87
2018-09-04T16:35:42.140Z,42.93
2018-09-04T16:38:12.768Z,50.67
2018-09-04T16:40:41.905Z,47.97
2018-09-04T16:43:10.324Z,52.33
2018-09-04T16:45:40.377Z,50.57
2018-09-04T16:48:09.533Z,51.00
2018-09-04T16:50:38.268Z,50.43
2018-09-04T16:53:07.133Z,48.03
2018-09-04T16:55:35.730Z,44.83
2018-09-04T16:58:05.040Z,46.30
2018-09-04T17:00:34.318Z,46.13
2018-09-04T17:03:04.873Z,47.30
2018-09-04T17:05:33.894Z,47.97
2018-09-04T17:08:02.877Z,50.93
2018-09-04T17:10:31.845Z,54.10
2018-09-04T17:13:00.597Z,54.27
2018-09-04T17:15:29.359Z,51.90
2018-09-04T17:17:59.222Z,50.87
2018-09-04T17:20:29.287Z,51.80
2018-09-04T17:22:58.919Z,56.37
2018-09-04T17:25:28.122Z,53.13
2018-09-04T17:27:56.980Z,54.17
2018-09-04T17:30:25.401Z,53.53
2018-09-04T17:32:54.615Z,57.00
2018-09-04T17:35:24.277Z,55.83
2018-09-04T17:37:54.721Z,53.77
2018-09-04T17:40:24.756Z,55.43
2018-09-04T17:42:53.694Z,57.40
2018-09-04T17:45:22.340Z,51.93
2018-09-04T17:47:50.837Z,59.37
2018-09-04T17:50:20.996Z,58.77
2018-09-04T17:52:49.459Z,62.27
2018-09-04T17:55:17.899Z,61.07
2018-09-04T17:57:47.396Z,55.20
2018-09-04T18:00:16.099Z,59.80
2018-09-04T18:02:46.359Z,58.57
2018-09-04T18:05:15.208Z,59.93
2018-09-04T18:07:43.722Z,62.60
2018-09-04T18:10:12.893Z,62.40
2018-09-04T18:12:41.629Z,61.07
2018-09-04T18:15:11.148Z,63.43
2018-09-04T18:17:39.991Z,68.77
2018-09-04T18:20:11.672Z,59.63
2018-09-04T18:22:40.404Z,61.47
2018-09-04T18:25:09.148Z,63.90
2018-09-04T18:27:38.456Z,73.33
2018-09-04T18:30:07.378Z,77.83
2018-09-04T18:32:36.169Z,77.70
2018-09-04T18:35:04.853Z,72.03
2018-09-04T18:37:34.275Z,70.23
2018-09-04T18:40:03.162Z,67.80
2018-09-04T18:42:32.284Z,68.50
2018-09-04T18:45:05.378Z,73.13
2018-09-04T18:47:36.478Z,88.37
2018-09-04T18:50:06.574Z,84.20
2018-09-04T18:52:35.558Z,81.87
2018-09-04T18:55:04.293Z,86.20
2018-09-04T18:57:32.926Z,82.33
2018-09-04T19:00:03.466Z,86.73
2018-09-04T19:02:31.850Z,86.67
2018-09-04T19:05:00.542Z,102.20
2018-09-04T19:07:28.998Z,88.83
2018-09-04T19:09:57.800Z,89.93
2018-09-04T19:12:27.775Z,94.23
2018-09-04T19:14:56.568Z,89.83
2018-09-04T19:17:25.646Z,88.17
2018-09-04T19:19:54.556Z,81.50
2018-09-04T19:22:24.859Z,88.97
2018-09-04T19:24:53.906Z,85.57
2018-09-04T19:27:23.228Z,83.43
2018-09-04T19:29:52.284Z,80.27
2018-09-04T19:32:20.989Z,75.63
2018-09-04T19:34:49.871Z,77.10
2018-09-04T19:37:18.597Z,75.53
2018-09-04T19:39:49.766Z,75.93
2018-09-04T19:42:18.766Z,73.80
2018-09-04T19:44:47.476Z,74.70
2018-09-04T19:47:17.640Z,82.07
2018-09-04T19:49:46.660Z,82.70
2018-09-04T19:52:15.505Z,80.13
2018-09-04T19:54:45.340Z,87.20
2018-09-04T19:57:14.250Z,88.23
2018-09-04T19:59:43.373Z,86.10
2018-09-04T20:02:12.296Z,84.27
2018-09-04T20:04:41.862Z,87.53
2018-09-04T20:07:10.338Z,84.23
2018-09-04T20:09:40.180Z,85.97
2018-09-04T20:12:11.528Z,92.57
2018-09-04T20:14:40.115Z,89.97
2018-09-04T20:17:09.697Z,84.33
2018-09-04T20:19:38.553Z,81.07
2018-09-04T20:22:09.206Z,82.77
2018-09-04T20:24:38.541Z,78.17
2018-09-04T20:27:07.260Z,76.70
2018-09-04T20:29:35.729Z,71.17
2018-09-04T20:32:05.509Z,79.77
2018-09-04T20:34:34.380Z,77.63
2018-09-04T20:37:02.844Z,74.23
2018-09-04T20:39:31.603Z,75.80
2018-09-04T20:42:00.229Z,74.53
2018-09-04T20:44:29.173Z,74.33
2018-09-04T20:46:58.482Z,66.13
2018-09-04T20:49:27.882Z,65.30
2018-09-04T20:51:56.436Z,61.87
2018-09-04T20:54:29.054Z,65.00
2018-09-04T20:57:32.155Z,61.07
2018-09-04T21:00:13.696Z,55.47
2018-09-04T21:02:54.358Z,61.03
2018-09-04T21:05:34.942Z,58.67
2018-09-04T21:09:14.782Z,56.93
2018-09-04T21:11:44.981Z,49.53
2018-09-04T21:14:15.233Z,49.77
2018-09-04T21:16:43.723Z,52.33
2018-09-04T21:19:12.461Z,52.87
2018-09-04T21:21:42.321Z,64.07
2018-09-04T21:24:10.773Z,51.13
2018-09-04T21:26:39.893Z,51.60
2018-09-04T21:29:09.371Z,45.63
2018-09-04T21:31:38.052Z,48.90
2018-09-04T21:34:07.737Z,50.77
2018-09-04T21:36:36.535Z,55.37
2018-09-04T21:39:07.058Z,49.27
2018-09-04T21:41:36.046Z,49.33
2018-09-04T21:44:04.904Z,46.47
2018-09-04T21:46:34.630Z,52.47
2018-09-04T21:49:03.491Z,49.37
2018-09-04T21:51:32.425Z,57.33
